Time;durP1;ratioP1;P1;durP2;ratioP2;P2;SDS_P1;SDS_P2;PMS_P1;PMS_P2;Temp;Humidity;BMP_temperature;BMP_pressure;BME280_temperature;BME280_humidity;BME280_pressure;Samples;Min_cycle;Max_cycle;Signal;HPM_P1;HPM_P2
2022/04/08 00:01:51;;;;;;;1.27;0.82;;;8.70;99.90;;;;;;4991511;28;20742;-30
2022/04/08 00:04:17;;;;;;;0.80;0.80;;;8.70;99.90;;;;;;4995007;28;20034;-30
2022/04/08 00:06:43;;;;;;;0.63;0.63;;;8.70;99.90;;;;;;4992066;28;20030;-31
2022/04/08 00:09:08;;;;;;;0.60;0.60;;;8.70;99.90;;;;;;4991908;28;20581;-29
2022/04/08 00:11:34;;;;;;;1.45;0.68;;;8.70;99.90;;;;;;4996759;28;20057;-31
2022/04/08 00:14:00;;;;;;;4.18;1.00;;;8.70;99.90;;;;;;4992223;28;20114;-31
2022/04/08 00:16:27;;;;;;;2.00;1.05;;;8.70;99.90;;;;;;4992720;28;20034;-30
2022/04/08 00:18:53;;;;;;;3.28;1.13;;;8.70;99.90;;;;;;4993131;28;20181;-31
2022/04/08 00:21:19;;;;;;;2.45;1.30;;;8.60;99.90;;;;;;4990622;28;20717;-30
2022/04/08 00:23:45;;;;;;;2.63;1.02;;;8.60;99.90;;;;;;4991377;28;20581;-29
2022/04/08 00:26:11;;;;;;;2.28;1.02;;;8.50;99.90;;;;;;4991271;28;20046;-30
2022/04/08 00:28:37;;;;;;;1.30;1.20;;;8.50;99.90;;;;;;4993437;28;20418;-31
2022/04/08 00:31:04;;;;;;;2.85;1.17;;;8.40;99.90;;;;;;4989891;28;20029;-30
2022/04/08 00:33:32;;;;;;;1.98;1.83;;;8.20;99.90;;;;;;4990850;28;21056;-31
2022/04/08 00:35:58;;;;;;;2.03;1.25;;;8.20;99.90;;;;;;4994757;28;20088;-30
2022/04/08 00:38:24;;;;;;;2.63;1.30;;;8.10;99.90;;;;;;4997360;28;20025;-28
2022/04/08 00:40:50;;;;;;;3.72;1.40;;;8.10;99.90;;;;;;4994237;28;20038;-29
2022/04/08 00:43:17;;;;;;;3.80;1.65;;;8.00;99.90;;;;;;4994758;28;20550;-30
2022/04/08 00:45:44;;;;;;;1.40;1.30;;;8.00;99.90;;;;;;4993895;28;20064;-30
2022/04/08 00:48:10;;;;;;;2.42;1.27;;;8.00;99.90;;;;;;4995741;28;20312;-29
2022/04/08 00:50:38;;;;;;;4.28;1.45;;;7.90;99.90;;;;;;4977347;28;20038;-29
2022/04/08 00:53:05;;;;;;;1.77;0.97;;;7.90;99.90;;;;;;4996495;28;20030;-29
2022/04/08 00:55:31;;;;;;;5.90;1.63;;;7.90;99.90;;;;;;4996886;28;20033;-29
2022/04/08 00:57:59;;;;;;;3.35;1.35;;;7.90;99.90;;;;;;4995679;28;20030;-29
2022/04/08 01:00:25;;;;;;;3.33;1.40;;;7.90;99.90;;;;;;4994014;28;20556;-35
2022/04/08 01:02:51;;;;;;;1.45;1.00;;;7.90;99.90;;;;;;4996309;28;20037;-32
2022/04/08 01:05:16;;;;;;;2.15;0.93;;;7.90;99.90;;;;;;4996034;28;20029;-35
2022/04/08 01:07:42;;;;;;;5.50;1.27;;;7.90;99.90;;;;;;4994077;28;20494;-35
2022/04/08 01:10:08;;;;;;;4.43;1.77;;;7.80;99.90;;;;;;4996404;28;20662;-33
2022/04/08 01:12:34;;;;;;;4.57;1.92;;;7.80;99.90;;;;;;4995433;28;20033;-34
2022/04/08 01:14:59;;;;;;;2.72;1.67;;;7.80;99.90;;;;;;4995251;28;20064;-33
2022/04/08 01:17:26;;;;;;;6.35;1.20;;;7.80;99.90;;;;;;4992009;28;20057;-35
2022/04/08 01:19:52;;;;;;;6.85;1.58;;;7.80;99.90;;;;;;4995623;28;20933;-35
2022/04/08 01:22:18;;;;;;;2.53;1.35;;;7.70;99.90;;;;;;4997972;28;20033;-34
2022/04/08 01:24:47;;;;;;;2.38;1.20;;;7.60;99.90;;;;;;4994941;28;20383;-35
2022/04/08 01:27:13;;;;;;;;;;;7.70;99.90;;;;;;4997036;28;20441;-33
2022/04/08 01:29:39;;;;;;;1.20;1.15;;;7.80;99.90;;;;;;4995365;28;19913;-35
2022/04/08 01:32:05;;;;;;;3.45;1.02;;;7.70;99.90;;;;;;4993994;28;20096;-35
2022/04/08 01:34:31;;;;;;;3.90;1.40;;;7.60;99.90;;;;;;4996101;28;20494;-34
2022/04/08 01:36:56;;;;;;;1.85;0.93;;;7.60;99.90;;;;;;4993890;28;20148;-35
2022/04/08 01:39:22;;;;;;;2.33;1.35;;;7.60;99.90;;;;;;4994528;28;20033;-33
2022/04/08 01:41:47;;;;;;;1.30;1.20;;;7.60;99.90;;;;;;4994562;28;20037;-35
2022/04/08 01:44:13;;;;;;;1.15;0.82;;;7.60;99.90;;;;;;4993532;28;20029;-35
2022/04/08 01:46:38;;;;;;;5.13;1.30;;;7.60;99.90;;;;;;4996050;28;20038;-33
2022/04/08 01:49:04;;;;;;;5.03;1.70;;;7.60;99.90;;;;;;4996778;28;20029;-35
2022/04/08 01:51:30;;;;;;;3.15;1.30;;;7.60;99.90;;;;;;4993382;28;20022;-33
2022/04/08 01:53:55;;;;;;;0.82;0.70;;;7.60;99.90;;;;;;4994485;28;20622;-34
2022/04/08 01:56:21;;;;;;;2.88;0.82;;;7.60;99.90;;;;;;4994761;28;20034;-34
2022/04/08 01:58:47;;;;;;;1.85;1.00;;;7.60;99.90;;;;;;4996032;28;20453;-34
2022/04/08 02:01:12;;;;;;;3.40;1.25;;;7.60;99.90;;;;;;4994126;28;20053;-34
2022/04/08 02:03:38;;;;;;;4.68;1.00;;;7.60;99.90;;;;;;4993506;28;20044;-34
2022/04/08 02:06:04;;;;;;;2.88;0.93;;;7.60;99.90;;;;;;4993785;28;20499;-35
2022/04/08 02:08:29;;;;;;;2.17;0.93;;;7.60;99.90;;;;;;4993373;28;20096;-34
2022/04/08 02:10:55;;;;;;;2.10;1.20;;;7.50;99.90;;;;;;4995293;28;20026;-35
2022/04/08 02:13:20;;;;;;;0.95;0.95;;;7.40;99.90;;;;;;4993046;28;20029;-34
2022/04/08 02:15:46;;;;;;;1.23;1.10;;;7.50;99.90;;;;;;4994855;28;20259;-33
2022/04/08 02:18:12;;;;;;;2.50;1.20;;;7.40;99.90;;;;;;4972799;28;20052;-34
2022/04/08 02:20:39;;;;;;;1.00;1.00;;;7.40;99.90;;;;;;4993148;28;20053;-34
2022/04/08 02:23:05;;;;;;;3.20;1.52;;;7.40;99.90;;;;;;4994169;28;20034;-33
2022/04/08 02:25:31;;;;;;;9.30;1.10;;;7.50;99.90;;;;;;4991539;28;20068;-34
2022/04/08 02:27:57;;;;;;;2.75;1.25;;;7.40;99.90;;;;;;4995826;28;20038;-33
2022/04/08 02:30:23;;;;;;;4.45;2.58;;;7.40;99.90;;;;;;4992842;28;20434;-34
2022/04/08 02:32:48;;;;;;;3.67;1.35;;;7.40;99.90;;;;;;4991906;28;20050;-34
2022/04/08 02:35:14;;;;;;;4.25;1.38;;;7.40;99.90;;;;;;4995744;28;20076;-34
2022/04/08 02:37:40;;;;;;;4.78;1.40;;;7.40;99.90;;;;;;4990413;28;20045;-33
2022/04/08 02:40:07;;;;;;;3.88;1.27;;;7.40;99.90;;;;;;4992786;28;20568;-33
2022/04/08 02:42:32;;;;;;;1.40;1.27;;;7.40;99.90;;;;;;4993418;28;20481;-34
2022/04/08 02:44:58;;;;;;;4.10;1.30;;;7.40;99.90;;;;;;4995248;28;20033;-34
2022/04/08 02:47:24;;;;;;;4.82;1.17;;;7.30;99.90;;;;;;4992466;28;20045;-34
2022/04/08 02:49:50;;;;;;;3.63;1.35;;;7.40;99.90;;;;;;4992597;28;20018;-33
2022/04/08 02:52:15;;;;;;;3.70;1.30;;;7.30;99.90;;;;;;4991878;28;20026;-33
2022/04/08 02:54:41;;;;;;;1.13;1.08;;;7.30;99.90;;;;;;4994648;28;20487;-34
2022/04/08 02:57:07;;;;;;;1.10;1.05;;;7.30;99.90;;;;;;4992351;28;20540;-34
2022/04/08 02:59:32;;;;;;;1.48;0.90;;;7.30;99.90;;;;;;4993952;28;20371;-34
2022/04/08 03:01:59;;;;;;;1.73;1.00;;;7.40;99.90;;;;;;4992592;28;20046;-32
2022/04/08 03:04:25;;;;;;;2.58;1.35;;;7.30;99.90;;;;;;4992962;28;20037;-33
2022/04/08 03:06:51;;;;;;;1.20;0.98;;;7.30;99.90;;;;;;4992645;28;20124;-34
2022/04/08 03:09:17;;;;;;;4.53;1.48;;;7.30;99.90;;;;;;4993897;28;20034;-34
2022/04/08 03:11:43;;;;;;;0.80;0.70;;;7.30;99.90;;;;;;4992894;28;20030;-33
2022/04/08 03:14:08;;;;;;;1.38;1.10;;;7.30;99.90;;;;;;4992955;28;20034;-34
2022/04/08 03:16:34;;;;;;;3.00;1.30;;;7.40;99.90;;;;;;4994791;28;20025;-34
2022/04/08 03:19:00;;;;;;;2.80;1.10;;;7.40;99.90;;;;;;4994109;28;20037;-34
2022/04/08 03:21:27;;;;;;;2.75;1.15;;;7.40;99.90;;;;;;4994707;28;20070;-33
2022/04/08 03:23:53;;;;;;;4.43;1.33;;;7.40;99.90;;;;;;4996038;28;20463;-33
2022/04/08 03:26:19;;;;;;;2.13;0.73;;;7.40;99.90;;;;;;4992675;28;20119;-34
2022/04/08 03:28:44;;;;;;;2.58;1.10;;;7.30;99.90;;;;;;4994240;28;20121;-34
2022/04/08 03:31:11;;;;;;;4.18;1.38;;;7.30;99.90;;;;;;4991617;28;20509;-34
2022/04/08 03:33:37;;;;;;;2.72;0.98;;;7.30;99.90;;;;;;4993662;28;21910;-35
2022/04/08 03:36:04;;;;;;;3.40;1.52;;;7.30;99.90;;;;;;4995164;28;20589;-34
2022/04/08 03:38:30;;;;;;;1.75;1.27;;;7.30;99.90;;;;;;4991592;28;20044;-35
2022/04/08 03:40:56;;;;;;;2.00;1.45;;;7.30;99.90;;;;;;4993144;28;20034;-34
2022/04/08 03:43:22;;;;;;;5.40;1.98;;;7.30;99.90;;;;;;4995367;28;20029;-36
2022/04/08 03:45:47;;;;;;;2.92;1.30;;;7.30;99.90;;;;;;4993085;28;20442;-34
2022/04/08 03:48:13;;;;;;;1.73;1.10;;;7.30;99.90;;;;;;4992172;28;20320;-34
2022/04/08 03:50:39;;;;;;;3.33;1.20;;;7.40;99.90;;;;;;4994223;28;20030;-34
2022/04/08 03:53:06;;;;;;;3.95;1.48;;;7.40;99.90;;;;;;4993812;28;20041;-33
2022/04/08 03:55:32;;;;;;;0.85;0.85;;;7.30;99.90;;;;;;4993519;28;20034;-35
2022/04/08 03:57:57;;;;;;;3.35;0.75;;;7.40;99.90;;;;;;4993776;28;20034;-34
2022/04/08 04:00:23;;;;;;;4.10;1.70;;;7.40;99.90;;;;;;4994097;28;20026;-34
2022/04/08 04:02:48;;;;;;;4.35;2.08;;;7.40;99.90;;;;;;4993091;28;20132;-34
2022/04/08 04:05:14;;;;;;;1.50;0.80;;;7.40;99.90;;;;;;4993235;28;20371;-34
2022/04/08 04:07:40;;;;;;;2.42;1.10;;;7.40;99.90;;;;;;4992451;28;20042;-33
2022/04/08 04:10:06;;;;;;;1.80;1.10;;;7.40;99.90;;;;;;4996742;28;20030;-34
2022/04/08 04:12:32;;;;;;;1.95;1.65;;;7.40;99.90;;;;;;4995906;28;20042;-34
2022/04/08 04:14:57;;;;;;;1.27;1.13;;;7.50;99.90;;;;;;4996415;28;20525;-32
2022/04/08 04:17:23;;;;;;;0.90;0.90;;;7.50;99.90;;;;;;4991146;28;20046;-32
2022/04/08 04:19:50;;;;;;;2.28;0.90;;;7.60;99.90;;;;;;4975665;28;20057;-33
2022/04/08 04:22:16;;;;;;;0.90;0.73;;;7.50;99.90;;;;;;4979111;28;20031;-34
2022/04/08 04:24:41;;;;;;;1.42;1.02;;;7.60;99.90;;;;;;4976107;28;20038;-34
2022/04/08 04:27:07;;;;;;;1.65;1.27;;;7.50;99.90;;;;;;4977876;28;20057;-34
2022/04/08 04:29:33;;;;;;;0.95;0.70;;;7.50;99.90;;;;;;4978041;28;20106;-32
2022/04/08 04:31:59;;;;;;;1.13;0.45;;;7.50;99.90;;;;;;4975264;28;20035;-34
2022/04/08 04:34:26;;;;;;;0.60;0.60;;;7.40;99.90;;;;;;4977008;28;20035;-35
2022/04/08 04:36:51;;;;;;;2.28;1.13;;;7.50;99.90;;;;;;4977012;28;20046;-34
2022/04/08 04:39:17;;;;;;;5.07;1.15;;;7.40;99.90;;;;;;4974576;28;20030;-34
2022/04/08 04:41:43;;;;;;;4.68;2.15;;;7.40;99.90;;;;;;4977638;28;20570;-34
2022/04/08 04:44:09;;;;;;;0.70;0.70;;;7.40;99.90;;;;;;4975456;28;20034;-33
2022/04/08 04:46:34;;;;;;;2.55;1.30;;;7.40;99.90;;;;;;4974580;28;20050;-34
2022/04/08 04:49:00;;;;;;;1.98;1.25;;;7.40;99.90;;;;;;4976446;28;20117;-34
2022/04/08 04:51:29;;;;;;;1.52;0.85;;;7.30;99.90;;;;;;4977547;28;20041;-33
2022/04/08 04:53:55;;;;;;;3.13;1.00;;;7.30;99.90;;;;;;4977720;28;20034;-34
2022/04/08 04:56:21;;;;;;;0.60;0.60;;;7.30;99.90;;;;;;4976421;28;20077;-34
2022/04/08 04:58:46;;;;;;;2.03;0.80;;;7.30;99.90;;;;;;4975103;28;20043;-35
2022/04/08 05:01:12;;;;;;;1.65;0.68;;;7.30;99.90;;;;;;4977008;28;20038;-35
2022/04/08 05:03:37;;;;;;;1.70;0.82;;;7.30;99.90;;;;;;4976423;28;20026;-35
2022/04/08 05:06:03;;;;;;;1.50;0.80;;;7.30;99.90;;;;;;4977371;28;20142;-35
2022/04/08 05:08:29;;;;;;;2.67;1.15;;;7.30;99.90;;;;;;4977033;28;20553;-35
2022/04/08 05:10:54;;;;;;;6.18;1.42;;;7.30;99.90;;;;;;4978322;28;20149;-35
2022/04/08 05:13:20;;;;;;;1.60;1.25;;;7.30;99.90;;;;;;4976111;28;20030;-33
2022/04/08 05:15:46;;;;;;;3.45;0.70;;;7.30;99.90;;;;;;4976827;28;20037;-34
2022/04/08 05:18:15;;;;;;;1.90;1.30;;;7.20;99.90;;;;;;4973154;28;20066;-32
2022/04/08 05:20:41;;;;;;;1.17;0.85;;;7.20;99.90;;;;;;4955787;28;20120;-34
2022/04/08 05:23:06;;;;;;;6.22;1.15;;;7.20;99.90;;;;;;4954853;28;20030;-35
2022/04/08 05:25:32;;;;;;;3.83;0.80;;;7.20;99.90;;;;;;4955927;28;20575;-35
2022/04/08 05:27:58;;;;;;;0.82;0.57;;;7.20;99.90;;;;;;4956148;28;20039;-34
2022/04/08 05:30:23;;;;;;;3.38;0.90;;;7.10;99.90;;;;;;4956842;28;20026;-34
2022/04/08 05:32:49;;;;;;;1.55;1.20;;;7.10;99.90;;;;;;4952650;28;20039;-34
2022/04/08 05:35:16;;;;;;;3.10;1.25;;;7.10;99.90;;;;;;4957336;28;20034;-33
2022/04/08 05:37:44;;;;;;;0.70;0.70;;;7.10;99.90;;;;;;4958876;28;20614;-34
2022/04/08 05:40:18;;;;;;;0.80;0.80;;;7.10;99.90;;;;;;4957140;28;20060;-34
2022/04/08 05:42:45;;;;;;;4.53;1.33;;;7.10;99.90;;;;;;4955949;28;20042;-33
2022/04/08 05:45:11;;;;;;;2.00;1.05;;;7.10;99.90;;;;;;4957233;28;20042;-33
2022/04/08 05:47:38;;;;;;;2.03;1.25;;;7.10;99.90;;;;;;4956709;28;20148;-34
2022/04/08 05:50:04;;;;;;;0.82;0.68;;;7.00;99.90;;;;;;4955818;28;20030;-34
2022/04/08 05:52:30;;;;;;;3.97;1.20;;;7.10;99.90;;;;;;4957231;28;20027;-33
2022/04/08 05:54:55;;;;;;;3.95;1.17;;;7.10;99.90;;;;;;4958556;28;20030;-34
2022/04/08 05:57:21;;;;;;;0.90;0.90;;;7.00;99.90;;;;;;4956872;28;20066;-32
2022/04/08 05:59:47;;;;;;;2.13;1.15;;;7.10;99.90;;;;;;4956578;28;20428;-33
2022/04/08 06:02:13;;;;;;;1.80;1.00;;;7.00;99.90;;;;;;4954408;28;20089;-35
2022/04/08 06:04:38;;;;;;;1.13;1.10;;;7.00;99.90;;;;;;4953381;28;20027;-34
2022/04/08 06:07:04;;;;;;;1.65;1.35;;;7.10;99.90;;;;;;4957467;28;20385;-35
2022/04/08 06:09:30;;;;;;;2.35;1.10;;;7.00;99.90;;;;;;4955573;28;20042;-35
2022/04/08 06:11:55;;;;;;;2.78;0.90;;;7.00;99.90;;;;;;4955174;28;20039;-36
2022/04/08 06:14:21;;;;;;;1.45;1.05;;;7.00;99.90;;;;;;4953889;28;20054;-35
2022/04/08 06:16:47;;;;;;;6.13;1.27;;;7.00;99.90;;;;;;4961531;28;20443;-35
2022/04/08 06:19:12;;;;;;;4.03;1.15;;;7.00;99.90;;;;;;4995085;28;20104;-35
2022/04/08 06:21:38;;;;;;;1.40;0.70;;;7.00;99.90;;;;;;4996213;28;20041;-34
2022/04/08 06:24:04;;;;;;;3.90;1.00;;;7.00;99.90;;;;;;4993095;28;20034;-34
2022/04/08 06:26:32;;;;;;;0.50;0.50;;;7.00;99.90;;;;;;4995414;28;20029;-33
2022/04/08 06:28:58;;;;;;;4.05;1.27;;;7.00;99.90;;;;;;4992817;28;20850;-33
2022/04/08 06:31:28;;;;;;;1.02;0.70;;;7.00;99.90;;;;;;4992825;28;20557;-34
2022/04/08 06:33:54;;;;;;;1.52;1.05;;;7.10;99.90;;;;;;4993655;28;20026;-34
2022/04/08 06:36:19;;;;;;;2.05;1.10;;;7.00;99.90;;;;;;4991002;28;20068;-35
2022/04/08 06:38:45;;;;;;;2.05;0.80;;;7.00;99.90;;;;;;4993861;28;20030;-34
2022/04/08 06:41:11;;;;;;;2.10;0.90;;;7.00;99.90;;;;;;4993252;28;20521;-35
2022/04/08 06:43:36;;;;;;;4.68;0.98;;;7.00;99.90;;;;;;4994275;28;20041;-34
2022/04/08 06:46:02;;;;;;;3.55;1.02;;;7.00;99.90;;;;;;4991928;28;20566;-34
2022/04/08 06:48:28;;;;;;;4.63;1.45;;;7.00;99.90;;;;;;4992236;28;20037;-34
2022/04/08 06:50:54;;;;;;;1.05;0.80;;;7.00;99.90;;;;;;4990036;28;20052;-35
2022/04/08 06:53:20;;;;;;;2.80;1.17;;;7.10;99.90;;;;;;4993588;28;20030;-35
2022/04/08 06:55:45;;;;;;;2.95;1.30;;;7.10;99.90;;;;;;4994843;28;20211;-34
2022/04/08 06:58:12;;;;;;;6.35;1.52;;;7.20;99.90;;;;;;4994740;28;20518;-34
2022/04/08 07:00:38;;;;;;;4.13;0.73;;;7.20;99.90;;;;;;4995317;28;20022;-36
2022/04/08 07:03:03;;;;;;;0.73;0.73;;;7.20;99.90;;;;;;4996061;28;20131;-35
2022/04/08 07:05:29;;;;;;;2.45;0.93;;;7.20;99.90;;;;;;4995934;28;20172;-36
2022/04/08 07:07:55;;;;;;;1.48;1.10;;;7.20;99.90;;;;;;4994626;28;20033;-34
2022/04/08 07:10:21;;;;;;;3.63;1.38;;;7.20;99.90;;;;;;4994333;28;20096;-34
2022/04/08 07:12:47;;;;;;;2.25;1.13;;;7.20;99.90;;;;;;4996106;28;20026;-35
2022/04/08 07:15:12;;;;;;;1.42;0.95;;;7.20;99.90;;;;;;4996159;28;20037;-33
2022/04/08 07:17:38;;;;;;;3.13;1.23;;;7.20;99.90;;;;;;4996179;28;20092;-35
2022/04/08 07:20:05;;;;;;;1.00;0.80;;;7.20;99.90;;;;;;4996211;28;20030;-36
2022/04/08 07:22:31;;;;;;;1.20;1.10;;;7.20;99.90;;;;;;4995952;28;20030;-34
2022/04/08 07:24:57;;;;;;;1.17;0.98;;;7.20;99.90;;;;;;4997313;28;20061;-34
2022/04/08 07:27:23;;;;;;;1.23;1.00;;;7.30;99.90;;;;;;4997034;28;20026;-35
2022/04/08 07:29:50;;;;;;;1.42;1.33;;;7.30;99.90;;;;;;4994060;28;20054;-33
2022/04/08 07:32:21;;;;;;;1.42;0.95;;;7.30;99.90;;;;;;4995532;28;20061;-34
2022/04/08 07:34:51;;;;;;;1.63;1.15;;;7.40;99.90;;;;;;4994514;28;20025;-35
2022/04/08 07:37:31;;;;;;;1.33;1.17;;;7.40;99.90;;;;;;4994500;28;20033;-33
2022/04/08 07:39:57;;;;;;;2.08;1.10;;;7.40;99.90;;;;;;4993698;28;20720;-34
2022/04/08 07:42:26;;;;;;;0.82;0.70;;;7.40;99.90;;;;;;4995411;28;20025;-33
2022/04/08 07:44:52;;;;;;;2.03;1.08;;;7.30;99.90;;;;;;4995508;28;20022;-35
2022/04/08 07:47:19;;;;;;;0.93;0.80;;;7.30;99.90;;;;;;4994265;28;20084;-36
2022/04/08 07:49:46;;;;;;;1.40;1.00;;;7.30;99.90;;;;;;4995933;28;20041;-36
2022/04/08 07:52:12;;;;;;;2.15;0.82;;;7.40;99.90;;;;;;4993478;28;20029;-34
2022/04/08 07:54:37;;;;;;;1.15;0.70;;;7.40;99.90;;;;;;4996626;28;20057;-35
2022/04/08 07:57:03;;;;;;;2.00;0.98;;;7.40;99.90;;;;;;4995451;28;20105;-35
2022/04/08 07:59:29;;;;;;;14.57;1.60;;;7.50;99.90;;;;;;4994418;28;20049;-33
2022/04/08 08:01:54;;;;;;;1.25;1.20;;;7.40;99.90;;;;;;4994389;28;20045;-33
2022/04/08 08:04:21;;;;;;;3.13;1.70;;;7.40;99.90;;;;;;4994140;28;20465;-32
2022/04/08 08:06:47;;;;;;;2.67;1.30;;;7.40;99.90;;;;;;4994171;28;20030;-35
2022/04/08 08:09:13;;;;;;;1.10;0.82;;;7.40;99.90;;;;;;4995228;28;20045;-36
2022/04/08 08:11:38;;;;;;;2.38;1.00;;;7.40;99.90;;;;;;4993877;28;20041;-37
2022/04/08 08:14:04;;;;;;;1.23;0.88;;;7.30;99.90;;;;;;4993426;28;20030;-34
2022/04/08 08:16:30;;;;;;;4.22;1.20;;;7.40;99.90;;;;;;4995609;28;20501;-35
2022/04/08 08:18:56;;;;;;;3.10;1.38;;;7.50;99.90;;;;;;4997165;28;20038;-36
2022/04/08 08:21:26;;;;;;;0.88;0.80;;;7.50;99.90;;;;;;4992440;28;20066;-35
2022/04/08 08:23:52;;;;;;;3.40;1.10;;;7.40;99.90;;;;;;4994894;28;20038;-34
2022/04/08 08:26:18;;;;;;;2.72;1.20;;;7.40;99.90;;;;;;4993210;28;20026;-35
2022/04/08 08:28:43;;;;;;;3.95;0.90;;;7.40;99.90;;;;;;4993746;28;20038;-34
2022/04/08 08:31:10;;;;;;;0.75;0.75;;;7.50;99.90;;;;;;4994336;28;20042;-34
2022/04/08 08:33:36;;;;;;;3.92;1.23;;;7.40;99.90;;;;;;4993591;28;20096;-35
2022/04/08 08:36:02;;;;;;;2.60;1.10;;;7.40;99.90;;;;;;4994763;28;20049;-35
2022/04/08 08:38:28;;;;;;;1.15;1.05;;;7.40;99.90;;;;;;4994949;28;20164;-34
2022/04/08 08:40:55;;;;;;;0.60;0.60;;;7.50;99.90;;;;;;4993524;28;20042;-35
2022/04/08 08:43:21;;;;;;;1.50;1.40;;;7.50;99.90;;;;;;4993374;28;20061;-35
2022/04/08 08:45:49;;;;;;;1.42;1.10;;;7.50;99.90;;;;;;4995243;28;20482;-35
2022/04/08 08:48:15;;;;;;;4.05;1.23;;;7.50;99.90;;;;;;4994950;28;20041;-36
2022/04/08 08:50:46;;;;;;;1.25;1.15;;;7.50;99.90;;;;;;4996627;28;20498;-35
2022/04/08 08:53:15;;;;;;;2.15;1.17;;;7.50;99.90;;;;;;4993674;28;20033;-35
2022/04/08 08:55:41;;;;;;;3.00;1.30;;;7.50;99.90;;;;;;4996713;28;20025;-35
2022/04/08 08:58:08;;;;;;;2.25;1.38;;;7.60;99.90;;;;;;5003917;28;20430;-36
2022/04/08 09:00:35;;;;;;;1.52;0.95;;;7.70;99.90;;;;;;4997187;28;20104;-35
2022/04/08 09:03:03;;;;;;;3.20;1.55;;;7.80;99.90;;;;;;5001108;28;20042;-35
2022/04/08 09:05:29;;;;;;;2.13;1.27;;;7.80;99.90;;;;;;4998292;28;20041;-34
2022/04/08 09:07:59;;;;;;;3.25;1.20;;;7.80;99.90;;;;;;4999377;28;20125;-35
2022/04/08 09:10:31;;;;;;;2.55;1.08;;;7.80;99.90;;;;;;4997474;28;20033;-35
2022/04/08 09:12:57;;;;;;;2.33;1.25;;;7.90;99.90;;;;;;4995482;28;20034;-34
2022/04/08 09:15:23;;;;;;;1.08;1.08;;;8.00;99.90;;;;;;4997617;28;22558;-33
2022/04/08 09:17:50;;;;;;;2.08;1.20;;;8.00;99.90;;;;;;4996037;28;20061;-34
2022/04/08 09:20:15;;;;;;;1.10;1.00;;;8.00;99.90;;;;;;4997150;28;20053;-35
2022/04/08 09:22:43;;;;;;;2.33;1.25;;;8.00;99.90;;;;;;4995971;28;20194;-34
2022/04/08 09:25:10;;;;;;;1.65;1.30;;;8.10;99.90;;;;;;4995839;28;20049;-34
2022/04/08 09:27:40;;;;;;;3.67;1.05;;;7.90;99.90;;;;;;4996214;28;20029;-35
2022/04/08 09:30:08;;;;;;;1.17;1.13;;;7.90;99.90;;;;;;4995358;28;20030;-35
2022/04/08 09:32:34;;;;;;;3.30;1.10;;;8.00;99.90;;;;;;4998114;28;20044;-34
2022/04/08 09:35:00;;;;;;;1.45;0.75;;;8.10;99.90;;;;;;4997430;28;20041;-33
2022/04/08 09:37:28;;;;;;;1.88;1.65;;;8.10;99.90;;;;;;4997463;28;20022;-35
2022/04/08 09:39:58;;;;;;;1.60;1.07;;;8.00;99.90;;;;;;4997859;28;20308;-34
2022/04/08 09:42:30;;;;;;;2.08;1.50;;;8.00;99.90;;;;;;4995266;28;20026;-35
2022/04/08 09:44:55;;;;;;;3.33;1.55;;;8.10;99.90;;;;;;4997455;28;20095;-34
2022/04/08 09:47:21;;;;;;;2.47;1.40;;;8.10;99.90;;;;;;4996007;28;20155;-35
2022/04/08 09:49:46;;;;;;;1.27;1.17;;;8.20;99.90;;;;;;4996287;28;20033;-33
2022/04/08 09:52:15;;;;;;;3.10;1.30;;;8.40;99.90;;;;;;4994876;28;20030;-33
2022/04/08 09:54:44;;;;;;;2.35;1.83;;;8.20;99.90;;;;;;4995650;28;20125;-33
2022/04/08 09:57:16;;;;;;;;;;;8.10;99.90;;;;;;4997968;28;20035;-34
2022/04/08 09:59:45;;;;;;;2.00;1.50;;;8.10;99.90;;;;;;4995135;28;20286;-34
2022/04/08 10:02:15;;;;;;;1.48;1.20;;;8.20;99.90;;;;;;4996087;28;20145;-35
2022/04/08 10:04:42;;;;;;;1.50;1.40;;;8.10;99.90;;;;;;4995110;28;20069;-34
2022/04/08 10:07:08;;;;;;;2.78;1.40;;;8.20;99.90;;;;;;4995137;28;20144;-33
2022/04/08 10:09:59;;;;;;;3.58;1.30;;;8.00;99.90;;;;;;4996993;28;20030;-35
2022/04/08 10:12:30;;;;;;;1.48;1.38;;;8.00;99.90;;;;;;4996201;28;20026;-34
2022/04/08 10:15:22;;;;;;;1.95;1.42;;;7.90;99.90;;;;;;4994981;28;20964;-34
2022/04/08 10:18:03;;;;;;;2.15;1.42;;;8.00;99.90;;;;;;4995677;28;20038;-32
2022/04/08 10:20:30;;;;;;;2.35;1.50;;;8.10;99.90;;;;;;4995911;28;20022;-34
2022/04/08 10:23:14;;;;;;;1.27;1.05;;;8.00;99.90;;;;;;4995585;28;20493;-32
2022/04/08 10:25:42;;;;;;;1.42;1.20;;;7.90;99.90;;;;;;4996722;28;20560;-32
2022/04/08 10:28:09;;;;;;;1.40;1.30;;;7.90;99.90;;;;;;4997470;28;20077;-33
2022/04/08 10:30:56;;;;;;;1.73;1.15;;;8.00;99.90;;;;;;4993656;28;20030;-33
2022/04/08 10:33:26;;;;;;;1.40;1.30;;;8.20;99.90;;;;;;4994415;28;20030;-34
2022/04/08 10:36:00;;;;;;;28.38;9.70;;;8.20;99.90;;;;;;4997286;28;20034;-34
2022/04/08 10:38:35;;;;;;;44.40;15.23;;;8.10;99.90;;;;;;4994276;28;20030;-32
2022/04/08 10:41:01;;;;;;;243.63;112.07;;;8.20;99.90;;;;;;4995283;28;20057;-33
2022/04/08 10:43:27;;;;;;;32.67;16.77;;;8.40;99.90;;;;;;4995813;28;20145;-32
2022/04/08 10:45:58;;;;;;;53.13;32.63;;;8.30;99.90;;;;;;4993216;28;20522;-34
2022/04/08 10:48:32;;;;;;;18.67;12.20;;;8.50;99.90;;;;;;4975787;28;20034;-34
2022/04/08 10:51:24;;;;;;;5.07;3.35;;;8.70;99.90;;;;;;4994177;28;20026;-33
2022/04/08 10:53:51;;;;;;;4.88;2.15;;;8.80;99.90;;;;;;4994969;28;20049;-35
2022/04/08 10:56:16;;;;;;;3.53;2.20;;;8.90;99.90;;;;;;4995947;28;20164;-34
2022/04/08 10:58:44;;;;;;;2.47;1.98;;;8.80;99.90;;;;;;4993774;28;20051;-33
2022/04/08 11:01:14;;;;;;;2.75;2.08;;;8.90;99.90;;;;;;4993195;28;20068;-35
2022/04/08 11:03:44;;;;;;;4.65;2.20;;;9.00;99.90;;;;;;4977190;28;20104;-34
2022/04/08 11:06:10;;;;;;;2.97;1.50;;;9.00;99.90;;;;;;4993531;28;20045;-34
2022/04/08 11:08:37;;;;;;;3.83;2.22;;;8.90;99.90;;;;;;4994340;28;20038;-34
2022/04/08 11:11:03;;;;;;;2.33;1.98;;;9.00;99.90;;;;;;4994069;28;20029;-32
2022/04/08 11:13:28;;;;;;;3.05;1.80;;;9.00;99.90;;;;;;4993237;28;20048;-33
2022/04/08 11:15:54;;;;;;;3.28;1.80;;;9.00;99.90;;;;;;4994443;28;20033;-32
2022/04/08 11:18:24;;;;;;;3.67;1.52;;;9.00;99.90;;;;;;4993574;28;20163;-32
2022/04/08 11:20:49;;;;;;;2.50;1.55;;;9.00;99.90;;;;;;4994046;28;20049;-33
2022/04/08 11:23:25;;;;;;;9.73;3.83;;;8.90;99.90;;;;;;4994664;28;20034;-34
2022/04/08 11:25:52;;;;;;;12.20;4.78;;;8.90;99.90;;;;;;4991619;28;20851;-34
2022/04/08 11:28:20;;;;;;;2.72;1.83;;;8.90;99.90;;;;;;4994910;28;20030;-33
2022/04/08 11:30:45;;;;;;;10.07;4.35;;;9.00;99.90;;;;;;4995851;28;20116;-34
2022/04/08 11:33:14;;;;;;;6.35;3.90;;;9.10;99.90;;;;;;4994060;28;20095;-33
2022/04/08 11:35:41;;;;;;;5.93;3.55;;;9.20;99.90;;;;;;4993765;28;20026;-34
2022/04/08 11:38:17;;;;;;;4.85;3.10;;;9.20;99.90;;;;;;4994553;28;20090;-34
2022/04/08 11:40:43;;;;;;;3.28;2.25;;;9.20;99.90;;;;;;4994484;28;20080;-33
2022/04/08 11:43:12;;;;;;;3.22;2.08;;;9.30;99.90;;;;;;4977626;28;20121;-34
2022/04/08 11:45:38;;;;;;;3.03;1.95;;;9.40;99.90;;;;;;4993277;28;20036;-34
2022/04/08 11:48:06;;;;;;;1.88;1.75;;;9.30;99.90;;;;;;4993399;28;20033;-32
2022/04/08 11:50:35;;;;;;;2.15;2.00;;;9.30;99.90;;;;;;4992202;28;20660;-34
2022/04/08 11:53:02;;;;;;;3.25;2.10;;;9.30;99.90;;;;;;4992953;28;20252;-34
2022/04/08 11:55:28;;;;;;;4.00;2.22;;;9.40;99.90;;;;;;4992594;28;20383;-33
2022/04/08 11:57:55;;;;;;;2.83;2.63;;;9.50;99.90;;;;;;4992597;28;20100;-35
2022/04/08 12:00:33;;;;;;;3.60;2.42;;;9.60;99.90;;;;;;4993689;28;20231;-35
2022/04/08 12:02:59;;;;;;;12.50;3.90;;;9.70;99.90;;;;;;5001035;28;20129;-35
2022/04/08 12:05:27;;;;;;;3.78;3.17;;;9.80;99.90;;;;;;4993017;28;20410;-34
2022/04/08 12:07:55;;;;;;;4.18;2.47;;;9.80;99.90;;;;;;4991825;28;20069;-34
2022/04/08 12:10:24;;;;;;;4.57;2.28;;;9.90;99.90;;;;;;4993418;28;20065;-35
2022/04/08 12:12:50;;;;;;;3.88;2.13;;;9.90;99.90;;;;;;4994790;28;20022;-33
2022/04/08 12:15:21;;;;;;;3.60;2.22;;;10.00;99.90;;;;;;4992898;28;20064;-35
2022/04/08 12:17:47;;;;;;;3.22;2.03;;;10.10;99.90;;;;;;4993193;28;20612;-35
2022/04/08 12:20:14;;;;;;;2.35;1.77;;;10.10;99.90;;;;;;4991729;28;20018;-33
2022/04/08 12:22:40;;;;;;;4.03;1.85;;;10.10;99.90;;;;;;4993289;28;20483;-33
2022/04/08 12:25:06;;;;;;;2.13;1.75;;;10.20;99.90;;;;;;4993938;28;20464;-34
2022/04/08 12:27:32;;;;;;;1.63;1.52;;;10.30;99.90;;;;;;4995014;28;20029;-34
2022/04/08 12:30:08;;;;;;;1.60;1.50;;;10.40;99.90;;;;;;4994669;28;20033;-36
2022/04/08 12:32:43;;;;;;;1.23;1.13;;;10.50;99.90;;;;;;4996548;28;20057;-34
2022/04/08 12:35:11;;;;;;;1.42;1.20;;;10.40;99.90;;;;;;4998106;28;20109;-35
2022/04/08 12:37:37;;;;;;;0.87;0.87;;;10.50;99.90;;;;;;4996124;28;20030;-34
2022/04/08 12:40:04;;;;;;;1.65;0.90;;;10.50;99.90;;;;;;4995910;28;20367;-35
2022/04/08 12:42:35;;;;;;;0.85;0.85;;;10.60;99.90;;;;;;4998090;28;20542;-33
2022/04/08 12:45:03;;;;;;;0.60;0.60;;;10.70;99.90;;;;;;4994887;28;20037;-35
2022/04/08 12:47:28;;;;;;;0.70;0.70;;;10.80;99.90;;;;;;4996405;28;21213;-35
2022/04/08 12:49:54;;;;;;;3.53;0.60;;;10.90;99.90;;;;;;4996537;28;20030;-35
2022/04/08 12:52:20;;;;;;;0.70;0.70;;;11.00;99.90;;;;;;4995853;28;20057;-35
2022/04/08 12:54:45;;;;;;;0.50;0.50;;;11.10;99.90;;;;;;4997860;28;20117;-34